SV1LH-1 Melissia GR current weather conditions

sailwx.info

Wind from 135 at 1 knots gusting 2

Air temperature 16.1° C
Dewpoint 14.1° C

Last reported at 2014-Oct-22 22:45 UTC.
Time now 2014-Oct-23 00:01 UTC

Location: N 38°03' E 023°51'.
View on Google Maps.

See reports from other nearby stations

  
Tides and Currents Weather Stations Pressure Air Temp Water Temp Dewpoint Dewpoint Depression Visibility Wind Speed Wind Dir Waves Ship Positions
date/time (UTC)wind fromknots sea level pressurealtimeterstation pressurevisibilityair tempwater tempwave heightnotes
2014-Oct-22 22:45 135 1 gusting 2 16.1
2014-Oct-22 22:40 157 1 gusting 2 16.1
2014-Oct-22 22:35 135 2 gusting 4 16.1
2014-Oct-22 22:30 157 3 gusting 5 16.1
2014-Oct-22 22:25 180 3 gusting 6 16.1
2014-Oct-22 22:20 180 6 gusting 10 16.1
2014-Oct-22 22:15 180 4 gusting 6 16.1
2014-Oct-22 22:10 157 6 gusting 7 16.1
2014-Oct-22 22:05 157 3 gusting 6 16.1
2014-Oct-22 22:00 135 4 gusting 7 16.1
2014-Oct-22 21:55 090 3 gusting 5 16.1
2014-Oct-22 21:50 090 2 gusting 3 16.1
2014-Oct-22 21:45 157 3 gusting 5 16.7
2014-Oct-22 21:25 112 1 gusting 3 16.7
2014-Oct-22 21:20 135 1 gusting 3 16.7
2014-Oct-22 21:15 157 2 gusting 3 16.7
2014-Oct-22 21:10 202 3 gusting 5 16.7
2014-Oct-22 21:05 112 2 gusting 4 16.7
2014-Oct-22 21:00 157 1 gusting 3 16.7
2014-Oct-22 20:55 180 2 gusting 3 17.2
2014-Oct-22 20:50 202 3 gusting 5 17.2
2014-Oct-22 20:45 180 6 gusting 8 17.8
2014-Oct-22 20:40 225 6 gusting 14 17.8
2014-Oct-22 20:35 180 6 gusting 11 18.3
2014-Oct-22 20:30 202 4 gusting 6 18.3
2014-Oct-22 20:25 202 6 gusting 6 18.3
2014-Oct-22 20:20 180 4 gusting 6 18.3
2014-Oct-22 20:15 247 4 gusting 6 18.3
2014-Oct-22 20:10 180 6 gusting 9 18.3
2014-Oct-22 20:05 180 4 gusting 7 18.3
2014-Oct-22 20:00 180 5 gusting 8 18.3
2014-Oct-22 19:55 180 5 gusting 6 18.3
2014-Oct-22 19:50 180 6 gusting 8 18.3
2014-Oct-22 19:45 157 5 gusting 8 18.3
2014-Oct-22 19:40 202 5 gusting 6 18.3
2014-Oct-22 19:35 135 5 gusting 6 18.3
2014-Oct-22 19:30 157 5 gusting 10 18.3
2014-Oct-22 19:25 180 8 gusting 13 18.3
2014-Oct-22 19:20 180 4 gusting 6 18.3
2014-Oct-22 19:15 157 3 gusting 6 17.8
2014-Oct-22 19:10 157 6 gusting 11 17.8
2014-Oct-22 19:05 157 3 gusting 5 17.8
2014-Oct-22 19:00 202 3 gusting 5 17.8
2014-Oct-22 18:55 225 1 gusting 4 17.8
2014-Oct-22 18:50 180 1 gusting 3 17.2
2014-Oct-22 18:45 180 1 gusting 2 17.2
2014-Oct-22 18:40 112 0 gusting 2 17.2
2014-Oct-22 18:35 157 1 gusting 1 17.2
2014-Oct-22 18:30 090 1 gusting 2 17.8
2014-Oct-22 18:25 202 0 gusting 3 17.8
2014-Oct-22 18:20 135 2 gusting 3 17.8
2014-Oct-22 18:15 225 1 gusting 1 17.8
2014-Oct-22 18:10 202 1 gusting 3 17.2
2014-Oct-22 18:05 225 0 gusting 1 17.2
2014-Oct-22 18:00 157 1 gusting 4 17.2
2014-Oct-22 17:55 112 1 gusting 2 17.2
2014-Oct-22 17:50 157 1 gusting 3 17.2
2014-Oct-22 17:45 135 1 gusting 2 17.2
2014-Oct-22 17:40 157 1 gusting 2 17.2
2014-Oct-22 17:35 180 0 gusting 3 17.2
2014-Oct-22 17:30 202 2 gusting 4 17.2
2014-Oct-22 17:25 225 3 gusting 5 17.2
2014-Oct-22 17:20 202 3 gusting 5 17.2
2014-Oct-22 17:15 180 4 gusting 6 17.2
2014-Oct-22 17:10 202 2 gusting 4 17.2
2014-Oct-22 17:05 180 2 gusting 4 17.2
2014-Oct-22 17:00 135 3 gusting 5 17.2
2014-Oct-22 16:55 270 2 gusting 4 17.8
2014-Oct-22 16:50 135 2 gusting 3 17.8
2014-Oct-22 16:45 157 2 gusting 4 17.8
2014-Oct-22 16:40 180 3 gusting 5 17.8
2014-Oct-22 16:35 180 3 gusting 5 17.8
2014-Oct-22 16:30 180 2 gusting 4 17.8
2014-Oct-22 16:25 180 3 gusting 6 17.8
2014-Oct-22 16:20 157 1 gusting 3 17.8
2014-Oct-22 16:15 247 1 gusting 1 17.8
2014-Oct-22 16:10 225 17.8
2014-Oct-22 16:05 090 1 gusting 1 17.8
2014-Oct-22 16:00 112 1 gusting 2 17.8
2014-Oct-22 15:55 157 1 gusting 3 17.8
2014-Oct-22 15:50 180 2 gusting 3 18.3
2014-Oct-22 15:45 180 2 gusting 3 18.3
2014-Oct-22 15:40 135 3 gusting 6 18.3
2014-Oct-22 15:35 090 1 gusting 3 18.9
2014-Oct-22 15:30 157 0 gusting 1 19.4
2014-Oct-22 15:25 180 2 gusting 3 19.4
2014-Oct-22 15:20 180 2 gusting 3 20.0
2014-Oct-22 15:15 180 2 gusting 5 20.6
2014-Oct-22 15:10 157 3 gusting 5 21.1
2014-Oct-22 15:05 202 3 gusting 4 21.1
2014-Oct-22 15:00 157 2 gusting 4 21.7
2014-Oct-22 14:55 202 5 gusting 7 21.7
2014-Oct-22 14:50 202 3 gusting 6 21.7
2014-Oct-22 14:45 180 2 gusting 4 21.7
2014-Oct-22 14:40 180 4 gusting 6 22.2
2014-Oct-22 14:35 202 4 gusting 6 22.2
2014-Oct-22 14:30 180 5 gusting 7 22.8
2014-Oct-22 14:25 202 4 gusting 6 22.8
2014-Oct-22 14:20 225 1 gusting 3 22.8
2014-Oct-22 14:15 270 2 gusting 3 22.8
2014-Oct-22 14:10 225 2 gusting 5 22.8
2014-Oct-22 14:05 270 3 gusting 6 23.3
2014-Oct-22 14:00 135 2 gusting 3 23.3
2014-Oct-22 13:55 225 4 gusting 6 23.9
2014-Oct-22 13:50 247 1 gusting 3 23.9
2014-Oct-22 13:45 225 2 gusting 3 23.9
2014-Oct-22 13:40 225 4 gusting 6 23.9
2014-Oct-22 13:35 247 3 gusting 6 23.9
2014-Oct-22 13:30 225 3 gusting 6 23.9
2014-Oct-22 13:25 225 3 gusting 5 23.9
2014-Oct-22 13:20 225 2 gusting 4 23.9
2014-Oct-22 13:15 247 2 gusting 5 23.9
2014-Oct-22 13:10 180 2 gusting 3 23.9
2014-Oct-22 13:05 247 3 gusting 4 23.9
2014-Oct-22 13:00 135 2 gusting 4 23.9
2014-Oct-22 12:55 247 5 gusting 6 23.9
2014-Oct-22 12:50 202 2 gusting 5 23.9
2014-Oct-22 12:45 315 2 gusting 4 23.9
2014-Oct-22 12:40 292 3 gusting 6 23.9
2014-Oct-22 12:35 315 1 gusting 5 23.9
2014-Oct-22 12:30 225 4 gusting 6 23.9
2014-Oct-22 12:25 270 3 gusting 6 23.9
2014-Oct-22 12:20 202 5 gusting 7 23.9
2014-Oct-22 12:15 292 6 gusting 8 23.9
2014-Oct-22 12:10 270 5 gusting 6 23.3
2014-Oct-22 12:05 225 5 gusting 6 23.9
2014-Oct-22 12:00 202 2 gusting 6 23.9
2014-Oct-22 11:55 247 6 gusting 9 23.9
2014-Oct-22 11:50 112 3 gusting 5 23.9
2014-Oct-22 11:45 247 4 gusting 6 23.9
2014-Oct-22 11:40 270 5 gusting 6 23.9
2014-Oct-22 11:35 225 5 gusting 9 23.9
2014-Oct-22 11:30 270 5 gusting 6 23.9
2014-Oct-22 11:25 225 4 gusting 6 24.4
2014-Oct-22 11:20 247 3 gusting 6 24.4
2014-Oct-22 11:15 225 3 gusting 5 25.0
2014-Oct-22 11:10 225 1 gusting 3 24.4
2014-Oct-22 11:05 270 3 gusting 6 24.4
2014-Oct-22 11:00 247 6 gusting 8 25.0
2014-Oct-22 10:55 225 4 gusting 6 25.0
2014-Oct-22 10:50 247 5 gusting 7 25.0
2014-Oct-22 10:45 270 2 gusting 4 25.0
2014-Oct-22 10:40 247 3 gusting 6 24.4
2014-Oct-22 10:35 270 4 gusting 6 24.4
2014-Oct-22 10:30 225 6 gusting 8 25.0
2014-Oct-22 10:25 247 4 gusting 7 25.0
2014-Oct-22 10:20 225 3 gusting 4 25.0
2014-Oct-22 10:15 292 4 gusting 6 25.0
2014-Oct-22 10:10 202 3 gusting 6 25.0
2014-Oct-22 10:05 270 4 gusting 6 24.4
2014-Oct-22 10:00 247 3 gusting 6 24.4
2014-Oct-22 09:55 337 2 gusting 3 24.4
2014-Oct-22 09:50 225 5 gusting 6 24.4
2014-Oct-22 09:45 135 2 gusting 4 24.4
2014-Oct-22 09:40 225 3 gusting 5 25.0
2014-Oct-22 09:35 202 3 gusting 5 25.0
2014-Oct-22 09:30 157 1 gusting 3 25.0
2014-Oct-22 09:25 180 3 gusting 5 25.0
2014-Oct-22 09:20 292 3 gusting 6 25.0
2014-Oct-22 09:15 270 5 gusting 6 25.0
2014-Oct-22 09:10 225 3 gusting 5 25.0
2014-Oct-22 09:05 180 1 gusting 4 24.4
2014-Oct-22 09:00 270 4 gusting 6 24.4
2014-Oct-22 08:55 247 1 gusting 3 24.4
2014-Oct-22 08:50 270 5 gusting 6 24.4
2014-Oct-22 08:45 247 4 gusting 6 23.9
2014-Oct-22 08:40 225 5 gusting 6 23.9
2014-Oct-22 08:35 247 2 gusting 6 23.9
2014-Oct-22 08:30 292 0 gusting 2 23.3
2014-Oct-22 08:25 270 4 gusting 7 23.3
2014-Oct-22 08:20 157 2 gusting 4 23.3
2014-Oct-22 08:15 270 1 gusting 2 23.3
2014-Oct-22 08:11 225 3 gusting 5 23.3
2014-Oct-22 08:05 225 2 gusting 5 23.3
2014-Oct-22 08:00 247 3 gusting 5 23.3
2014-Oct-22 07:55 157 2 gusting 3 22.8
2014-Oct-22 07:51 225 2 gusting 3 21.7
2014-Oct-22 07:45 247 0 gusting 2 20.6
2014-Oct-22 07:40 225 1 gusting 2 21.1
2014-Oct-22 07:35 157 1 gusting 2 21.7
2014-Oct-22 07:30 202 1 gusting 1 22.2
2014-Oct-22 07:25 247 2 gusting 5 22.8
2014-Oct-22 07:20 180 2 gusting 4 23.3
2014-Oct-22 07:15 225 2 gusting 3 23.3
2014-Oct-22 06:54 157 23.9
2014-Oct-22 06:50 225 23.3
2014-Oct-22 06:45 225 23.3
2014-Oct-22 06:40 315 23.3
2014-Oct-22 06:35 270 22.8
2014-Oct-22 06:30 22.2
2014-Oct-22 06:25 337 21.7
2014-Oct-22 06:20 292 21.1
2014-Oct-22 06:15 315 20.0
2014-Oct-22 06:10 090 20.0
2014-Oct-22 06:05 225 18.9
2014-Oct-22 06:00 202 18.3
2014-Oct-22 05:55 112 18.3
2014-Oct-22 05:50 112 17.8
2014-Oct-22 05:45 225 17.2
2014-Oct-22 05:40 292 16.7
2014-Oct-22 05:35 315 0 gusting 1 16.1
2014-Oct-22 05:30 15.6
2014-Oct-22 05:25 337 1 gusting 2 15.0
2014-Oct-22 05:20 13.9
2014-Oct-22 05:15 022 0 gusting 1 13.3
2014-Oct-22 05:10 315 1 gusting 2 12.2
2014-Oct-22 05:05 022 11.7
2014-Oct-22 05:00 112 11.7
2014-Oct-22 04:55 090 11.7
2014-Oct-22 04:50 090 0 gusting 1 11.7
2014-Oct-22 04:45 090 2 gusting 2 11.7
2014-Oct-22 04:40 090 2 gusting 2 11.7
2014-Oct-22 04:35 067 2 gusting 3 11.7
2014-Oct-22 04:30 090 3 gusting 4 11.7
2014-Oct-22 04:25 112 3 gusting 4 11.7
2014-Oct-22 04:20 067 1 gusting 2 11.7
2014-Oct-22 04:15 090 2 gusting 3 11.7
2014-Oct-22 04:10 090 2 gusting 3 11.7
2014-Oct-22 04:05 090 2 gusting 3 11.7
2014-Oct-22 04:00 090 1 gusting 1 11.7
2014-Oct-22 03:55 090 0 gusting 1 11.7
2014-Oct-22 03:50 090 2 gusting 2 11.7
2014-Oct-22 03:45 090 2 gusting 3 11.7
2014-Oct-22 03:40 090 2 gusting 3 11.7
2014-Oct-22 03:35 090 2 gusting 3 11.7
2014-Oct-22 03:30 090 3 gusting 4 11.7
2014-Oct-22 03:25 090 3 gusting 3 11.7
2014-Oct-22 03:20 090 3 gusting 4 11.7
2014-Oct-22 03:15 090 0 gusting 1 11.7
2014-Oct-22 03:10 090 0 gusting 1 11.7
2014-Oct-22 03:05 067 11.7
2014-Oct-22 03:00 022 11.7
2014-Oct-22 02:55 090 11.7
2014-Oct-22 02:50 315 11.7
2014-Oct-22 02:45 045 11.7
2014-Oct-22 02:40 045 11.7
2014-Oct-22 02:35 090 11.7
2014-Oct-22 02:30 090 11.1
2014-Oct-22 02:25 045 11.1
2014-Oct-22 02:20 090 0 gusting 1 11.1
2014-Oct-22 02:15 067 0 gusting 1 11.1
2014-Oct-22 02:10 090 11.1
2014-Oct-22 02:05 067 11.1
2014-Oct-22 02:00 090 0 gusting 1 11.1
2014-Oct-22 01:55 090 11.1
2014-Oct-22 01:50 090 0 gusting 0 11.1
2014-Oct-22 01:45 090 0 gusting 0 11.1
2014-Oct-22 01:40 112 0 gusting 1 11.1
2014-Oct-22 01:35 090 1 gusting 1 11.1
2014-Oct-22 01:30 090 11.1
2014-Oct-22 01:25 090 11.7
2014-Oct-22 01:20 090 0 gusting 1 11.7
2014-Oct-22 01:15 090 11.7
2014-Oct-22 01:11 090 11.7
2014-Oct-22 01:05 090 11.7
2014-Oct-22 01:00 067 0 gusting 0 11.7
2014-Oct-22 00:55 090 12.2
2014-Oct-22 00:50 090 12.2
2014-Oct-22 00:45 112 0 gusting 1 12.2
2014-Oct-22 00:40 067 0 gusting 1 12.2
2014-Oct-22 00:35 090 1 gusting 3 12.2
2014-Oct-22 00:30 090 1 gusting 2 12.2
2014-Oct-22 00:25 090 1 gusting 2 12.2
2014-Oct-22 00:20 090 2 gusting 3 11.7
2014-Oct-22 00:15 090 1 gusting 2 11.7
2014-Oct-22 00:10 112 0 gusting 1 11.7
2014-Oct-22 00:05 067 0 gusting 1 11.7
2014-Oct-22 00:00 090 0 gusting 1 11.7
2014-Oct-21 23:55 090 0 gusting 1 11.7
2014-Oct-21 23:50 067 1 gusting 2 11.7
2014-Oct-21 23:45 112 0 gusting 2 11.7
2014-Oct-21 23:40 090 1 gusting 2 11.7
2014-Oct-21 23:35 090 12.2
2014-Oct-21 23:30 090 0 gusting 3 12.2
2014-Oct-21 23:25 090 1 gusting 2 11.7
2014-Oct-21 23:20 090 0 gusting 1 11.7
2014-Oct-21 23:15 090 1 gusting 2 11.7
2014-Oct-21 23:10 112 1 gusting 2 11.7
2014-Oct-21 23:05 090 0 gusting 1 11.7
2014-Oct-21 23:00 090 11.7
2014-Oct-21 22:55 067 0 gusting 1 11.7
2014-Oct-21 22:50 112 11.7
2014-Oct-21 22:45 067 0 gusting 1 11.7
2014-Oct-21 22:40 090 1 gusting 1 11.7
2014-Oct-21 22:35 090 11.7
2014-Oct-21 22:30 045 12.2
2014-Oct-21 22:25 090 2 gusting 3 12.2
2014-Oct-21 22:20 067 0 gusting 1 12.2
2014-Oct-21 22:15 067 12.2
2014-Oct-21 22:10 067 0 gusting 0 12.2
2014-Oct-21 22:05 067 12.2
2014-Oct-21 22:00 090 12.2
2014-Oct-21 21:55 090 1 gusting 2 12.2
2014-Oct-21 21:50 090 12.2
2014-Oct-21 21:45 045 12.2
2014-Oct-21 21:40 112 12.2
2014-Oct-21 21:35 12.2
2014-Oct-21 21:30 090 0 gusting 1 12.2
2014-Oct-21 21:12 090 0 gusting 1 12.2
2014-Oct-21 21:10 112 12.2
2014-Oct-21 21:05 045 12.2
2014-Oct-21 21:00 090 12.2
2014-Oct-21 20:55 090 0 gusting 1 12.2
2014-Oct-21 20:50 067 12.2
2014-Oct-21 20:45 202 0 gusting 1 12.2
2014-Oct-21 20:40 022 12.2
2014-Oct-21 20:35 067 0 gusting 1 12.2
2014-Oct-21 20:30 045 12.2
2014-Oct-21 20:25 022 0 gusting 0 12.2
2014-Oct-21 20:20 112 0 gusting 1 12.2
2014-Oct-21 20:15 112 0 gusting 1 12.2
2014-Oct-21 20:10 090 12.2
2014-Oct-21 20:05 112 12.2
2014-Oct-21 20:00 112 12.2
2014-Oct-21 19:55 090 0 gusting 1 12.2
2014-Oct-21 19:50 090 0 gusting 1 12.2
2014-Oct-21 19:45 067 12.8
2014-Oct-21 19:40 180 12.8
2014-Oct-21 19:35 12.8
2014-Oct-21 19:30 12.8
2014-Oct-21 19:25 022 0 gusting 0 12.8
2014-Oct-21 19:20 12.8
2014-Oct-21 19:15 067 12.8
2014-Oct-21 19:10 045 12.8
2014-Oct-21 19:05 13.3
2014-Oct-21 19:00 022 0 gusting 1 12.8
2014-Oct-21 18:55 045 13.3
2014-Oct-21 18:50 045 13.3
2014-Oct-21 18:45 045 13.3
2014-Oct-21 18:40 090 13.9
2014-Oct-21 18:35 045 0 gusting 1 13.9
2014-Oct-21 18:30 13.3
2014-Oct-21 18:25 13.3
2014-Oct-21 18:20 022 1 gusting 2 13.3
2014-Oct-21 18:15 13.3
2014-Oct-21 18:10 337 13.3
2014-Oct-21 18:05 13.3
2014-Oct-21 18:00 022 0 gusting 0 12.8
2014-Oct-21 17:55 022 12.8
2014-Oct-21 17:50 045 12.8
2014-Oct-21 17:45 112 12.8
2014-Oct-21 17:40 067 13.3
2014-Oct-21 17:35 067 13.3
2014-Oct-21 17:30 045 13.3
2014-Oct-21 17:25 090 13.3
2014-Oct-21 17:20 067 13.3
2014-Oct-21 17:15 045 13.3
2014-Oct-21 17:11 090 13.3
2014-Oct-21 17:05 067 13.3
2014-Oct-21 17:00 067 13.3
2014-Oct-21 16:55 112 13.9
2014-Oct-21 16:50 090 13.9
2014-Oct-21 16:45 022 14.4
2014-Oct-21 16:40 090 14.4
2014-Oct-21 16:35 112 14.4
2014-Oct-21 16:30 090 14.4
2014-Oct-21 16:25 090 0 gusting 1 15.0
2014-Oct-21 16:20 090 0 gusting 1 15.0
2014-Oct-21 16:15 090 1 gusting 1 15.6
2014-Oct-21 16:10 090 15.6
2014-Oct-21 16:05 112 16.1
2014-Oct-21 16:00 112 16.1
2014-Oct-21 15:55 270 16.7
2014-Oct-21 15:50 315 0 gusting 1 17.2
2014-Oct-21 15:45 180 17.2
2014-Oct-21 15:40 270 1 gusting 3 17.8
2014-Oct-21 15:35 180 18.3
2014-Oct-21 15:30 247 2 gusting 3 18.9
2014-Oct-21 15:25 247 2 gusting 3 19.4
2014-Oct-21 15:20 225 1 gusting 3 19.4
2014-Oct-21 15:15 292 1 gusting 3 20.0
2014-Oct-21 15:10 315 2 gusting 4 20.6
2014-Oct-21 15:05 225 1 gusting 2 20.6
2014-Oct-21 15:00 202 0 gusting 1 21.1
2014-Oct-21 14:40 247 1 gusting 4 22.2
2014-Oct-21 14:35 247 2 gusting 5 22.2
2014-Oct-21 14:30 270 1 gusting 3 22.2
2014-Oct-21 14:25 225 2 gusting 4 22.8
2014-Oct-21 14:20 225 3 gusting 5 22.8
2014-Oct-21 14:02 202 3 gusting 5 23.3
2014-Oct-21 14:00 247 4 gusting 5 23.3
2014-Oct-21 13:40 180 2 gusting 3 24.4
2014-Oct-21 13:35 202 1 gusting 3 24.4
2014-Oct-21 13:30 247 1 gusting 3 24.4
2014-Oct-21 13:25 180 2 gusting 4 24.4
2014-Oct-21 13:20 270 2 gusting 5 24.4
2014-Oct-21 13:15 202 2 gusting 4 25.0
2014-Oct-21 13:10 247 2 gusting 5 25.0
2014-Oct-21 13:05 157 3 gusting 6 25.0
2014-Oct-21 13:00 202 3 gusting 5 25.0
2014-Oct-21 12:55 292 2 gusting 3 25.0
2014-Oct-21 12:50 202 3 gusting 6 25.6
2014-Oct-21 12:45 202 4 gusting 5 25.6
2014-Oct-21 12:40 270 1 gusting 2 25.6
2014-Oct-21 12:35 202 4 gusting 7 25.6
2014-Oct-21 12:30 270 3 gusting 4 26.1
2014-Oct-21 12:25 270 2 gusting 3 26.1
2014-Oct-21 12:20 202 2 gusting 3 26.7
2014-Oct-21 12:15 225 26.7
2014-Oct-21 12:10 247 1 gusting 3 26.7
2014-Oct-21 12:05 270 0 gusting 2 26.7
2014-Oct-21 12:00 315 0 gusting 1 26.7
2014-Oct-21 11:55 225 1 gusting 3 26.7
2014-Oct-21 11:50 180 26.1
2014-Oct-21 11:45 225 3 gusting 3 26.1
2014-Oct-21 11:40 26.1
2014-Oct-21 11:35 225 3 gusting 5 26.7
2014-Oct-21 11:30 180 26.7
2014-Oct-21 11:25 202 3 gusting 6 27.2
2014-Oct-21 11:20 180 0 gusting 1 27.2
2014-Oct-21 11:15 202 2 gusting 3 27.2
2014-Oct-21 11:10 26.7
2014-Oct-21 11:05 270 26.1
2014-Oct-21 11:00 270 2 gusting 3 26.1
2014-Oct-21 10:55 202 0 gusting 2 26.1
2014-Oct-21 10:50 292 3 gusting 5 26.1
2014-Oct-21 10:45 247 1 gusting 2 26.1
2014-Oct-21 10:40 270 0 gusting 2 25.6
2014-Oct-21 10:35 202 3 gusting 5 26.1
2014-Oct-21 10:30 270 2 gusting 3 25.6
2014-Oct-21 10:25 292 2 gusting 6 25.6
2014-Oct-21 10:20 270 2 gusting 3 25.6
2014-Oct-21 10:15 202 1 gusting 2 25.6
2014-Oct-21 10:10 180 2 gusting 3 26.1
2014-Oct-21 10:05 292 0 gusting 1 25.6
2014-Oct-21 10:00 270 1 gusting 2 25.6
2014-Oct-21 09:55 225 0 gusting 1 25.6
2014-Oct-21 09:50 180 2 gusting 4 25.6
2014-Oct-21 09:45 247 2 gusting 4 25.6
2014-Oct-21 09:40 202 2 gusting 4 26.1
2014-Oct-21 09:35 135 1 gusting 3 26.1
2014-Oct-21 09:30 270 1 gusting 3 26.1
2014-Oct-21 09:25 270 0 gusting 1 26.1
2014-Oct-21 09:20 247 3 gusting 4 25.6
2014-Oct-21 09:15 045 0 gusting 1 25.0
2014-Oct-21 09:10 202 2 gusting 4 25.0
2014-Oct-21 09:05 157 1 gusting 1 25.0
2014-Oct-21 09:00 202 3 gusting 6 25.0
2014-Oct-21 08:55 135 1 gusting 3 25.6
2014-Oct-21 08:50 292 2 gusting 4 25.6
2014-Oct-21 08:45 180 0 gusting 1 25.0
2014-Oct-21 08:40 180 3 gusting 4 25.0
2014-Oct-21 08:35 112 2 gusting 3 25.0
2014-Oct-21 08:30 225 1 gusting 2 24.4
2014-Oct-21 08:25 225 2 gusting 3 24.4
2014-Oct-21 08:20 23.9
2014-Oct-21 08:16 180 2 gusting 4 24.4
2014-Oct-21 08:10 247 2 gusting 4 24.4
2014-Oct-21 08:05 247 1 gusting 2 24.4
2014-Oct-21 08:00 202 1 gusting 2 24.4
2014-Oct-21 07:55 202 1 gusting 2 24.4
2014-Oct-21 07:37 24.4
2014-Oct-21 07:35 247 24.4
2014-Oct-21 07:30 270 2 gusting 3 24.4
2014-Oct-21 07:25 247 1 gusting 1 24.4
2014-Oct-21 07:20 247 0 gusting 2 24.4
2014-Oct-21 06:59 247 0 gusting 1 25.0
2014-Oct-21 06:55 247 24.4
2014-Oct-21 06:50 202 23.3
2014-Oct-21 06:45 135 22.8
2014-Oct-21 06:40 180 22.2
2014-Oct-21 06:35 090 1 gusting 2 22.2
2014-Oct-21 06:30 045 21.7
2014-Oct-21 06:25 090 20.6
2014-Oct-21 06:20 112 0 gusting 0 19.4
2014-Oct-21 06:15 090 1 gusting 1 18.9
2014-Oct-21 06:10 112 0 gusting 0 18.3
2014-Oct-21 06:05 090 0 gusting 0 17.8
2014-Oct-21 06:00 090 17.2
2014-Oct-21 05:55 045 16.7
2014-Oct-21 05:50 090 0 gusting 1 15.6
2014-Oct-21 05:45 090 0 gusting 2 15.0
2014-Oct-21 05:40 090 2 gusting 2 15.0
2014-Oct-21 05:35 045 13.9
2014-Oct-21 05:30 090 0 gusting 1 13.3
2014-Oct-21 05:25 090 1 gusting 1 12.8
2014-Oct-21 05:20 090 1 gusting 2 12.2
2014-Oct-21 05:15 090 0 gusting 0 11.7
2014-Oct-21 05:10 045 0 gusting 0 10.6
2014-Oct-21 05:05 067 1 gusting 3 9.4
2014-Oct-21 05:00 090 1 gusting 2 9.4
2014-Oct-21 04:55 090 0 gusting 1 9.4
2014-Oct-21 04:50 090 1 gusting 2 9.4
2014-Oct-21 04:45 112 2 gusting 3 9.4
2014-Oct-21 04:40 090 1 gusting 1 8.9
2014-Oct-21 04:35 090 0 gusting 1 8.9
2014-Oct-21 04:30 090 1 gusting 2 8.9
2014-Oct-21 04:25 090 0 gusting 1 8.9
2014-Oct-21 04:20 067 1 gusting 2 8.9
2014-Oct-21 04:15 067 0 gusting 1 8.9
2014-Oct-21 04:10 067 0 gusting 1 8.9
2014-Oct-21 04:05 090 1 gusting 1 8.9
2014-Oct-21 04:00 045 0 gusting 1 8.9
2014-Oct-21 03:55 090 0 gusting 1 8.9
2014-Oct-21 03:50 090 0 gusting 0 8.9
2014-Oct-21 03:45 112 1 gusting 2 8.9
2014-Oct-21 03:40 090 0 gusting 1 8.9
2014-Oct-21 03:35 067 0 gusting 1 8.9
2014-Oct-21 03:30 090 1 gusting 1 9.4
2014-Oct-21 03:25 090 0 gusting 1 9.4
2014-Oct-21 03:20 090 0 gusting 0 9.4
2014-Oct-21 03:15 090 1 gusting 2 9.4
2014-Oct-21 03:10 090 2 gusting 3 9.4
2014-Oct-21 03:05 10.0
2014-Oct-21 03:00 090 0 gusting 1 10.0
2014-Oct-21 02:55 090 0 gusting 0 10.0
2014-Oct-21 02:50 112 0 gusting 1 10.0
2014-Oct-21 02:45 090 1 gusting 1 10.6
2014-Oct-21 02:40 112 0 gusting 1 10.6
2014-Oct-21 02:35 090 11.1
2014-Oct-21 02:30 090 0 gusting 1 11.1
2014-Oct-21 02:25 090 0 gusting 1 11.1
2014-Oct-21 02:20 067 11.7
2014-Oct-21 02:15 045 11.7
2014-Oct-21 02:10 292 0 gusting 0 12.2
2014-Oct-21 02:05 270 12.8
2014-Oct-21 02:00 13.3
2014-Oct-21 01:55 13.3
2014-Oct-21 01:50 067 1 gusting 2 13.9
2014-Oct-21 01:45 045 3 gusting 5 13.3
2014-Oct-21 01:40 067 3 gusting 5 13.3
2014-Oct-21 01:35 022 3 gusting 5 12.2
2014-Oct-21 01:30 022 1 gusting 2 12.2
2014-Oct-21 01:26 225 0 gusting 0 12.8
2014-Oct-21 01:20 067 1 gusting 2 12.8
2014-Oct-21 01:15 067 3 gusting 5 12.2
2014-Oct-21 01:10 337 1 gusting 3 12.2
2014-Oct-21 01:05 022 1 gusting 2 11.7
2014-Oct-21 01:00 315 11.7
2014-Oct-21 00:55 247 0 gusting 1 11.7
2014-Oct-21 00:50 11.1
2014-Oct-21 00:45 202 11.1
2014-Oct-21 00:40 202 11.1
2014-Oct-21 00:35 11.1
2014-Oct-21 00:30 315 11.7
2014-Oct-21 00:25 157 0 gusting 1 11.7
2014-Oct-21 00:20 202 11.7
2014-Oct-21 00:15 11.7
2014-Oct-21 00:10 270 0 gusting 1 11.7
2014-Oct-21 00:05 202 11.7
2014-Oct-21 00:00 315 0 gusting 1 11.7